createdAt,value
2018-08-25T00:02:13.267Z,13.37
2018-08-25T00:04:41.568Z,12.73
2018-08-25T00:07:10.008Z,14.30
2018-08-25T00:09:39.406Z,13.47
2018-08-25T00:12:07.709Z,13.27
2018-08-25T00:14:36.013Z,13.00
2018-08-25T00:17:04.541Z,15.70
2018-08-25T00:19:32.845Z,19.57
2018-08-25T00:22:01.198Z,13.37
2018-08-25T00:24:29.496Z,14.73
2018-08-25T00:26:57.804Z,13.33
2018-08-25T00:29:26.094Z,15.00
2018-08-25T00:31:54.360Z,16.87
2018-08-25T00:34:23.014Z,13.57
2018-08-25T00:36:51.315Z,14.53
2018-08-25T00:39:19.607Z,17.00
2018-08-25T00:41:47.885Z,14.60
2018-08-25T00:44:16.184Z,14.73
2018-08-25T00:46:45.015Z,14.43
2018-08-25T00:49:13.457Z,15.83
2018-08-25T00:51:41.758Z,17.30
2018-08-25T00:54:10.030Z,14.20
2018-08-25T00:56:38.325Z,13.47
2018-08-25T00:59:06.619Z,15.60
2018-08-25T01:01:34.900Z,17.17
2018-08-25T01:04:03.203Z,16.80
2018-08-25T01:06:31.567Z,15.77
2018-08-25T01:08:59.963Z,14.17
2018-08-25T01:11:28.246Z,14.13
2018-08-25T01:13:56.529Z,13.87
2018-08-25T01:16:24.821Z,16.10
2018-08-25T01:18:53.096Z,14.80
2018-08-25T01:21:44.014Z,14.53
2018-08-25T01:24:12.279Z,14.43
2018-08-25T01:26:40.560Z,15.43
2018-08-25T01:29:08.828Z,14.13
2018-08-25T01:31:37.099Z,14.73
2018-08-25T01:34:05.394Z,13.53
2018-08-25T01:36:33.682Z,16.20
2018-08-25T01:39:01.953Z,15.43
2018-08-25T01:41:30.248Z,15.40
2018-08-25T01:43:58.520Z,12.97
2018-08-25T01:46:26.806Z,16.63
2018-08-25T01:48:55.080Z,14.23
2018-08-25T01:51:23.362Z,13.47
2018-08-25T01:53:51.628Z,13.97
2018-08-25T01:56:19.920Z,13.50
2018-08-25T01:58:48.229Z,13.90
2018-08-25T02:01:16.492Z,13.63
2018-08-25T02:03:44.768Z,14.50
2018-08-25T02:06:13.059Z,14.23
2018-08-25T02:08:41.357Z,13.87
2018-08-25T02:11:09.657Z,12.80
2018-08-25T02:13:37.925Z,12.33
2018-08-25T02:16:06.856Z,13.60
2018-08-25T02:18:35.136Z,11.90
2018-08-25T02:21:03.456Z,13.57
2018-08-25T02:23:31.745Z,13.33
2018-08-25T02:26:00.025Z,14.00
2018-08-25T02:28:28.309Z,13.27
2018-08-25T02:30:56.596Z,12.60
2018-08-25T02:33:24.924Z,12.07
2018-08-25T02:35:53.228Z,13.07
2018-08-25T02:38:21.504Z,13.20
2018-08-25T02:40:49.829Z,13.90
2018-08-25T02:43:18.116Z,14.37
2018-08-25T02:45:46.428Z,14.43
2018-08-25T02:48:14.713Z,10.87
2018-08-25T02:50:42.996Z,12.47
2018-08-25T02:53:11.265Z,14.37
2018-08-25T02:55:39.529Z,13.10
2018-08-25T02:58:07.827Z,12.17
2018-08-25T03:00:36.093Z,12.00
2018-08-25T03:03:04.382Z,12.10
2018-08-25T03:05:32.666Z,12.37
2018-08-25T03:08:00.964Z,11.57
2018-08-25T03:10:29.254Z,12.80
2018-08-25T03:12:57.520Z,13.70
2018-08-25T03:15:25.801Z,13.40
2018-08-25T03:17:54.085Z,11.63
2018-08-25T03:20:22.369Z,12.03
2018-08-25T03:22:50.636Z,15.23
2018-08-25T03:25:18.921Z,13.53
2018-08-25T03:27:47.191Z,13.20
2018-08-25T03:30:15.449Z,13.70
2018-08-25T03:32:43.725Z,12.20
2018-08-25T03:35:12.840Z,12.43
2018-08-25T03:37:41.109Z,13.37
2018-08-25T03:40:09.384Z,12.83
2018-08-25T03:42:37.656Z,12.07
2018-08-25T03:45:05.965Z,11.03
2018-08-25T03:47:34.237Z,11.70
2018-08-25T03:50:02.529Z,11.63
2018-08-25T03:52:30.804Z,14.33
2018-08-25T03:54:59.080Z,12.03
2018-08-25T03:57:27.365Z,12.00
2018-08-25T03:59:55.640Z,12.20
2018-08-25T04:02:24.100Z,12.53
2018-08-25T04:04:52.384Z,12.70
2018-08-25T04:07:20.651Z,9.70
2018-08-25T04:09:48.929Z,11.23
2018-08-25T04:12:17.203Z,8.30
2018-08-25T04:14:45.520Z,11.03
2018-08-25T04:17:13.769Z,10.83
2018-08-25T04:19:42.049Z,11.67
2018-08-25T04:22:10.345Z,11.50
2018-08-25T04:24:38.604Z,11.47
2018-08-25T04:27:06.879Z,8.60
2018-08-25T04:29:35.155Z,11.23
2018-08-25T04:32:03.459Z,10.13
2018-08-25T04:34:31.755Z,12.23
2018-08-25T04:37:00.024Z,9.50
2018-08-25T04:39:28.288Z,10.53
2018-08-25T04:41:56.577Z,12.93
2018-08-25T04:44:24.852Z,10.47
2018-08-25T04:46:53.125Z,9.67
2018-08-25T04:49:21.390Z,9.93
2018-08-25T04:51:49.696Z,11.13
2018-08-25T04:54:17.975Z,11.07
2018-08-25T04:56:46.275Z,10.67
2018-08-25T04:59:14.554Z,10.67
2018-08-25T05:01:42.857Z,9.90
2018-08-25T05:04:11.086Z,9.80
2018-08-25T05:06:39.365Z,13.50
2018-08-25T05:09:09.160Z,9.57
2018-08-25T05:11:37.444Z,10.20
2018-08-25T05:14:05.724Z,10.17
2018-08-25T05:16:33.998Z,9.97
2018-08-25T05:19:02.301Z,9.87
2018-08-25T05:21:30.585Z,9.57
2018-08-25T05:23:58.872Z,7.73
2018-08-25T05:26:27.127Z,8.63
2018-08-25T05:28:55.395Z,8.63
2018-08-25T05:31:23.664Z,9.53
2018-08-25T05:33:51.947Z,10.83
2018-08-25T05:36:20.241Z,9.47
2018-08-25T05:38:48.538Z,8.17
2018-08-25T05:41:16.833Z,8.80
2018-08-25T05:43:45.120Z,9.60
2018-08-25T05:46:13.386Z,9.20
2018-08-25T05:48:41.657Z,8.37
2018-08-25T05:51:09.917Z,9.70
2018-08-25T05:53:38.206Z,9.37
2018-08-25T05:56:06.587Z,9.70
2018-08-25T05:58:34.849Z,9.47
2018-08-25T06:01:03.173Z,8.97
2018-08-25T06:03:31.425Z,8.37
2018-08-25T06:05:59.697Z,9.60
2018-08-25T06:08:27.977Z,8.57
2018-08-25T06:10:56.292Z,10.07
2018-08-25T06:13:24.573Z,8.53
2018-08-25T06:15:52.826Z,12.57
2018-08-25T06:18:21.097Z,8.00
2018-08-25T06:20:49.384Z,10.77
2018-08-25T06:23:17.656Z,10.47
2018-08-25T06:25:45.936Z,8.83
2018-08-25T06:28:14.225Z,11.20
2018-08-25T06:30:42.492Z,9.57
2018-08-25T06:33:10.757Z,8.63
2018-08-25T06:35:39.016Z,8.27
2018-08-25T06:38:07.307Z,8.87
2018-08-25T06:40:35.585Z,8.10
2018-08-25T06:43:03.883Z,7.97
2018-08-25T06:45:32.160Z,8.97
2018-08-25T06:48:00.429Z,8.73
2018-08-25T06:50:28.709Z,7.27
2018-08-25T06:52:56.977Z,6.83
2018-08-25T06:55:25.262Z,10.30
2018-08-25T06:57:53.550Z,8.83
2018-08-25T07:00:21.818Z,8.40
2018-08-25T07:02:50.101Z,7.00
2018-08-25T07:05:18.804Z,6.67
2018-08-25T07:07:47.097Z,9.70
2018-08-25T07:10:15.364Z,8.90
2018-08-25T07:12:43.667Z,6.50
2018-08-25T07:15:11.912Z,8.10
2018-08-25T07:17:40.177Z,7.70
2018-08-25T07:20:08.460Z,8.10
2018-08-25T07:22:50.745Z,8.70
2018-08-25T07:25:19.033Z,7.57
2018-08-25T07:27:47.292Z,7.30
2018-08-25T07:30:15.565Z,6.20
2018-08-25T07:32:43.842Z,6.77
2018-08-25T07:35:12.112Z,6.70
2018-08-25T07:37:40.377Z,8.60
2018-08-25T07:40:08.700Z,11.67
2018-08-25T07:42:36.998Z,34.83
2018-08-25T07:45:05.605Z,39.37
2018-08-25T07:47:33.877Z,59.83
2018-08-25T07:50:02.150Z,99.40
2018-08-25T07:52:30.440Z,36.67
2018-08-25T07:54:58.721Z,18.53
2018-08-25T07:57:26.991Z,9.20
2018-08-25T07:59:55.302Z,9.20
2018-08-25T08:02:23.552Z,10.43
2018-08-25T08:04:51.953Z,10.07
2018-08-25T08:07:20.184Z,6.93
2018-08-25T08:09:48.496Z,12.57
2018-08-25T08:12:16.813Z,9.87
2018-08-25T08:14:45.045Z,7.53
2018-08-25T08:17:13.315Z,9.40
2018-08-25T08:19:41.576Z,7.77
2018-08-25T08:22:09.845Z,9.63
2018-08-25T08:24:38.117Z,8.60
2018-08-25T08:27:06.764Z,11.33
2018-08-25T08:29:35.072Z,9.43
2018-08-25T08:32:03.332Z,8.77
2018-08-25T08:34:31.629Z,10.30
2018-08-25T08:36:59.891Z,9.93
2018-08-25T08:39:28.228Z,10.13
2018-08-25T08:41:56.478Z,7.87
2018-08-25T08:44:24.763Z,8.27
2018-08-25T08:46:53.066Z,13.90
2018-08-25T08:49:21.349Z,8.93
2018-08-25T08:51:49.636Z,7.77
2018-08-25T08:54:17.914Z,7.90
2018-08-25T08:56:46.189Z,10.70
2018-08-25T08:59:14.489Z,8.77
2018-08-25T09:01:42.770Z,11.03
2018-08-25T09:04:11.090Z,8.73
2018-08-25T09:06:39.357Z,8.87
2018-08-25T09:09:09.171Z,6.03
2018-08-25T09:11:37.627Z,7.30
2018-08-25T09:14:05.893Z,8.17
2018-08-25T09:16:34.172Z,8.13
2018-08-25T09:19:02.474Z,6.73
2018-08-25T09:21:30.741Z,9.13
2018-08-25T09:23:59.004Z,7.27
2018-08-25T09:26:27.301Z,6.47
2018-08-25T09:28:55.596Z,9.57
2018-08-25T09:31:23.869Z,6.07
2018-08-25T09:33:52.140Z,8.57
2018-08-25T09:36:21.010Z,9.03
2018-08-25T09:38:49.658Z,9.43
2018-08-25T09:41:17.916Z,6.90
2018-08-25T09:43:46.173Z,8.90
2018-08-25T09:46:14.436Z,6.30
2018-08-25T09:48:42.722Z,14.90
2018-08-25T09:51:11.006Z,6.83
2018-08-25T09:53:39.381Z,5.97
2018-08-25T09:56:07.553Z,6.93
2018-08-25T09:58:35.817Z,6.17
2018-08-25T10:01:05.610Z,7.20
2018-08-25T10:03:34.899Z,5.23
2018-08-25T10:06:03.208Z,10.70
2018-08-25T10:08:31.512Z,15.87
2018-08-25T10:10:59.814Z,11.83
2018-08-25T10:13:28.076Z,6.57
2018-08-25T10:15:56.332Z,8.50
2018-08-25T10:18:24.639Z,6.40
2018-08-25T10:20:52.916Z,5.23
2018-08-25T10:23:21.241Z,6.60
2018-08-25T10:25:49.468Z,6.63
2018-08-25T10:28:17.740Z,8.03
2018-08-25T10:30:46.019Z,7.30
2018-08-25T10:33:14.274Z,6.53
2018-08-25T10:35:42.579Z,7.80
2018-08-25T10:38:10.829Z,6.37
2018-08-25T10:40:39.113Z,6.83
2018-08-25T10:43:07.386Z,6.33
2018-08-25T10:45:35.653Z,7.47
2018-08-25T10:48:03.981Z,5.50
2018-08-25T10:50:32.197Z,7.43
2018-08-25T10:53:00.477Z,7.03
2018-08-25T10:55:28.780Z,6.93
2018-08-25T10:57:57.074Z,9.77
2018-08-25T11:00:25.437Z,8.77
2018-08-25T11:02:53.616Z,8.43
2018-08-25T11:05:21.908Z,7.43
2018-08-25T11:07:50.169Z,8.53
2018-08-25T11:10:18.444Z,5.63
2018-08-25T11:12:46.722Z,7.47
2018-08-25T11:15:15.000Z,6.20
2018-08-25T11:17:43.274Z,7.13
2018-08-25T11:20:11.544Z,8.50
2018-08-25T11:22:39.820Z,8.27
2018-08-25T11:25:08.099Z,10.47
2018-08-25T11:27:36.356Z,9.10
2018-08-25T11:30:04.728Z,9.60
2018-08-25T11:32:33.017Z,8.63
2018-08-25T11:35:01.298Z,6.73
2018-08-25T11:37:29.733Z,6.27
2018-08-25T11:39:58.000Z,6.90
2018-08-25T11:42:26.277Z,6.23
2018-08-25T11:44:54.557Z,9.47
2018-08-25T11:47:22.836Z,6.10
2018-08-25T11:49:51.117Z,7.10
2018-08-25T11:52:19.397Z,8.10
2018-08-25T11:54:47.676Z,11.87
2018-08-25T11:57:15.949Z,10.03
2018-08-25T11:59:44.212Z,11.23
2018-08-25T12:02:12.560Z,9.17
2018-08-25T12:04:40.773Z,9.67
2018-08-25T12:07:09.040Z,10.40
2018-08-25T12:09:37.416Z,7.37
2018-08-25T12:12:05.596Z,8.77
2018-08-25T12:14:33.945Z,7.70
2018-08-25T12:17:02.224Z,6.83
2018-08-25T12:19:30.537Z,9.30
2018-08-25T12:21:58.809Z,6.37
2018-08-25T12:24:27.150Z,7.17
2018-08-25T12:26:56.360Z,7.47
2018-08-25T12:29:24.629Z,7.93
2018-08-25T12:31:52.905Z,5.87
2018-08-25T12:34:21.177Z,8.07
2018-08-25T12:36:49.461Z,8.10
2018-08-25T12:39:17.748Z,9.87
2018-08-25T12:41:46.012Z,7.30
2018-08-25T12:44:14.286Z,5.70
2018-08-25T12:46:42.565Z,4.93
2018-08-25T12:49:10.841Z,6.60
2018-08-25T12:51:39.182Z,5.50
2018-08-25T12:54:07.396Z,5.27
2018-08-25T12:56:35.680Z,9.87
2018-08-25T12:59:03.987Z,10.10
2018-08-25T13:01:32.283Z,8.70
2018-08-25T13:04:00.557Z,9.63
2018-08-25T13:06:28.933Z,9.50
2018-08-25T13:08:57.204Z,9.50
2018-08-25T13:11:25.481Z,10.63
2018-08-25T13:13:53.779Z,10.13
2018-08-25T13:16:22.046Z,7.40
2018-08-25T13:18:50.385Z,9.27
2018-08-25T13:21:18.605Z,8.23
2018-08-25T13:23:46.925Z,6.27
2018-08-25T13:26:15.193Z,7.83
2018-08-25T13:28:43.468Z,8.03
2018-08-25T13:31:11.757Z,7.73
2018-08-25T13:33:40.017Z,10.13
2018-08-25T13:36:08.301Z,6.03
2018-08-25T13:38:36.584Z,11.40
2018-08-25T13:41:04.968Z,6.73
2018-08-25T13:43:33.273Z,8.07
2018-08-25T13:46:01.555Z,10.93
2018-08-25T13:48:29.833Z,10.47
2018-08-25T13:50:58.175Z,7.53
2018-08-25T13:53:26.389Z,8.80
2018-08-25T13:55:54.775Z,10.07
2018-08-25T13:58:23.160Z,9.10
2018-08-25T14:00:51.331Z,9.43
2018-08-25T14:03:19.597Z,7.43
2018-08-25T14:05:47.868Z,7.27
2018-08-25T14:08:16.229Z,9.17
2018-08-25T14:10:44.419Z,8.77
2018-08-25T14:13:12.676Z,6.77
2018-08-25T14:15:40.948Z,6.93
2018-08-25T14:18:09.224Z,7.20
2018-08-25T14:20:37.525Z,7.77
2018-08-25T14:23:05.864Z,10.60
2018-08-25T14:25:34.153Z,7.33
2018-08-25T14:28:02.457Z,6.87
2018-08-25T14:30:30.749Z,6.33
2018-08-25T14:32:59.073Z,6.23
2018-08-25T14:35:27.340Z,6.47
2018-08-25T14:37:55.613Z,7.70
2018-08-25T14:40:23.882Z,7.97
2018-08-25T14:42:52.154Z,6.73
2018-08-25T14:45:20.443Z,9.40
2018-08-25T14:47:48.733Z,5.80
2018-08-25T14:50:17.023Z,7.20
2018-08-25T14:52:45.297Z,7.20
2018-08-25T14:55:13.577Z,4.73
2018-08-25T14:57:41.854Z,4.77
2018-08-25T15:00:10.122Z,5.33
2018-08-25T15:02:38.397Z,4.53
2018-08-25T15:05:07.064Z,5.00
2018-08-25T15:07:35.349Z,4.40
2018-08-25T15:10:03.660Z,7.40
2018-08-25T15:12:31.928Z,5.93
2018-08-25T15:15:00.238Z,6.27
2018-08-25T15:17:28.521Z,6.20
2018-08-25T15:19:56.828Z,5.93
2018-08-25T15:22:25.098Z,5.03
2018-08-25T15:24:53.385Z,5.90
2018-08-25T15:27:21.742Z,6.03
2018-08-25T15:29:49.938Z,5.57
2018-08-25T15:32:18.218Z,7.10
2018-08-25T15:34:46.502Z,4.17
2018-08-25T15:37:14.757Z,5.53
2018-08-25T15:39:43.044Z,5.80
2018-08-25T15:42:11.336Z,4.47
2018-08-25T15:44:39.633Z,6.43
2018-08-25T15:47:07.892Z,4.40
2018-08-25T15:49:36.204Z,5.70
2018-08-25T15:52:04.537Z,5.43
2018-08-25T15:54:32.809Z,7.27
2018-08-25T15:57:01.097Z,6.30
2018-08-25T15:59:29.414Z,4.27
2018-08-25T16:01:57.684Z,5.10
2018-08-25T16:04:25.973Z,7.23
2018-08-25T16:06:54.252Z,4.67
2018-08-25T16:09:22.528Z,5.40
2018-08-25T16:11:50.846Z,5.97
2018-08-25T16:14:19.085Z,6.10
2018-08-25T16:16:47.373Z,4.70
2018-08-25T16:19:15.683Z,7.13
2018-08-25T16:21:43.925Z,6.90
2018-08-25T16:24:12.212Z,5.17
2018-08-25T16:26:40.494Z,6.43
2018-08-25T16:29:08.776Z,5.57
2018-08-25T16:31:37.037Z,7.33
2018-08-25T16:34:05.330Z,5.37
2018-08-25T16:36:33.615Z,9.00
2018-08-25T16:39:01.937Z,6.93
2018-08-25T16:41:30.228Z,6.27
2018-08-25T16:43:58.510Z,6.80
2018-08-25T16:46:26.878Z,7.17
2018-08-25T16:48:55.387Z,7.57
2018-08-25T16:51:23.677Z,5.83
2018-08-25T16:53:51.957Z,4.73
2018-08-25T16:56:20.245Z,4.90
2018-08-25T16:58:48.544Z,7.53
2018-08-25T17:01:16.852Z,5.70
2018-08-25T17:03:45.137Z,4.43
2018-08-25T17:06:13.409Z,4.90
2018-08-25T17:08:41.812Z,4.73
2018-08-25T17:11:10.029Z,5.60
2018-08-25T17:13:38.312Z,5.03
2018-08-25T17:16:06.616Z,6.57
2018-08-25T17:18:34.894Z,7.93
2018-08-25T17:21:03.239Z,5.30
2018-08-25T17:23:31.475Z,5.60
2018-08-25T17:25:59.820Z,5.27
2018-08-25T17:28:28.541Z,7.97
2018-08-25T17:30:56.824Z,5.50
2018-08-25T17:33:25.105Z,4.87
2018-08-25T17:35:53.394Z,6.73
2018-08-25T17:38:21.707Z,5.03
2018-08-25T17:40:49.985Z,4.77
2018-08-25T17:43:18.245Z,8.53
2018-08-25T17:45:46.516Z,7.70
2018-08-25T17:48:14.789Z,6.20
2018-08-25T17:50:43.072Z,7.23
2018-08-25T17:53:11.448Z,6.57
2018-08-25T17:55:39.721Z,5.87
2018-08-25T17:58:07.997Z,4.93
2018-08-25T18:00:36.285Z,6.03
2018-08-25T18:03:04.625Z,6.17
2018-08-25T18:05:32.912Z,5.77
2018-08-25T18:08:01.230Z,7.43
2018-08-25T18:10:29.548Z,6.57
2018-08-25T18:12:57.837Z,6.57
2018-08-25T18:15:26.121Z,4.37
2018-08-25T18:17:54.403Z,7.03
2018-08-25T18:20:22.685Z,5.63
2018-08-25T18:22:50.949Z,7.07
2018-08-25T18:25:19.233Z,8.03
2018-08-25T18:27:47.493Z,6.83
2018-08-25T18:30:15.848Z,7.27
2018-08-25T18:32:44.044Z,5.67
2018-08-25T18:35:12.325Z,9.07
2018-08-25T18:37:40.580Z,6.23
2018-08-25T18:40:08.879Z,6.73
2018-08-25T18:42:37.175Z,6.63
2018-08-25T18:45:05.730Z,6.07
2018-08-25T18:47:34.009Z,6.00
2018-08-25T18:50:02.317Z,5.83
2018-08-25T18:52:30.577Z,7.43
2018-08-25T18:54:58.993Z,6.83
2018-08-25T18:57:27.145Z,7.97
2018-08-25T18:59:55.413Z,5.77
2018-08-25T19:02:23.762Z,7.53
2018-08-25T19:04:51.993Z,6.57
2018-08-25T19:07:20.284Z,7.80
2018-08-25T19:09:48.549Z,5.97
2018-08-25T19:12:16.821Z,6.57
2018-08-25T19:14:45.090Z,8.43
2018-08-25T19:17:13.377Z,5.47
2018-08-25T19:19:41.644Z,6.50
2018-08-25T19:22:10.378Z,7.53
2018-08-25T19:24:38.675Z,7.83
2018-08-25T19:27:07.254Z,5.93
2018-08-25T19:29:35.605Z,4.93
2018-08-25T19:32:03.881Z,5.13
2018-08-25T19:34:32.161Z,7.87
2018-08-25T19:37:00.496Z,7.80
2018-08-25T19:39:28.764Z,5.13
2018-08-25T19:41:57.049Z,5.47
2018-08-25T19:44:25.314Z,6.30
2018-08-25T19:46:53.635Z,6.53
2018-08-25T19:49:21.854Z,6.27
2018-08-25T19:51:50.125Z,5.37
2018-08-25T19:54:18.397Z,4.87
2018-08-25T19:56:46.668Z,5.47
2018-08-25T19:59:14.985Z,6.93
2018-08-25T20:01:43.268Z,6.57
2018-08-25T20:04:11.563Z,5.27
2018-08-25T20:06:39.857Z,4.77
2018-08-25T20:09:08.419Z,4.83
2018-08-25T20:11:37.284Z,5.77
2018-08-25T20:14:05.645Z,4.23
2018-08-25T20:16:33.911Z,3.90
2018-08-25T20:19:02.836Z,3.23
2018-08-25T20:21:31.096Z,5.40
2018-08-25T20:23:59.379Z,5.43
2018-08-25T20:26:27.636Z,4.83
2018-08-25T20:28:55.926Z,3.73
2018-08-25T20:31:24.194Z,5.87
2018-08-25T20:33:52.452Z,5.90
2018-08-25T20:36:20.710Z,3.53
2018-08-25T20:38:48.997Z,5.17
2018-08-25T20:41:17.284Z,7.60
2018-08-25T20:43:45.564Z,5.60
2018-08-25T20:46:13.850Z,5.13
2018-08-25T20:48:42.124Z,6.00
2018-08-25T20:51:10.413Z,5.87
2018-08-25T20:53:38.692Z,5.10
2018-08-25T20:56:06.961Z,5.20
2018-08-25T20:58:35.232Z,5.50
2018-08-25T21:01:03.525Z,5.40
2018-08-25T21:03:31.806Z,5.00
2018-08-25T21:06:00.091Z,5.13
2018-08-25T21:08:28.365Z,6.10
2018-08-25T21:10:56.640Z,7.13
2018-08-25T21:13:24.953Z,5.40
2018-08-25T21:15:53.282Z,4.97
2018-08-25T21:18:21.484Z,5.30
2018-08-25T21:20:49.790Z,5.00
2018-08-25T21:23:18.077Z,4.80
2018-08-25T21:25:46.365Z,6.17
2018-08-25T21:28:14.646Z,4.80
2018-08-25T21:30:42.925Z,3.80
2018-08-25T21:33:11.192Z,4.43
2018-08-25T21:35:39.476Z,3.50
2018-08-25T21:38:07.747Z,3.10
2018-08-25T21:40:36.045Z,3.63
2018-08-25T21:43:04.314Z,2.77
2018-08-25T21:45:32.577Z,1.93
2018-08-25T21:48:00.864Z,3.57
2018-08-25T21:50:29.126Z,2.90
2018-08-25T21:52:57.413Z,2.70
2018-08-25T21:55:25.908Z,3.10
2018-08-25T21:57:54.181Z,3.00
2018-08-25T22:00:22.485Z,3.20
2018-08-25T22:02:50.753Z,2.03
2018-08-25T22:05:19.039Z,2.27
2018-08-25T22:07:47.324Z,2.07
2018-08-25T22:10:15.605Z,2.57
2018-08-25T22:12:43.881Z,2.37
2018-08-25T22:15:12.145Z,3.57
2018-08-25T22:17:40.429Z,2.23
2018-08-25T22:20:08.727Z,2.70
2018-08-25T22:22:37.006Z,2.63
2018-08-25T22:25:05.329Z,3.70
2018-08-25T22:27:33.593Z,4.53
2018-08-25T22:30:01.909Z,2.93
2018-08-25T22:32:30.169Z,2.63
2018-08-25T22:34:58.444Z,4.10
2018-08-25T22:37:26.724Z,3.40
2018-08-25T22:39:54.997Z,3.10
2018-08-25T22:42:23.261Z,2.90
2018-08-25T22:44:51.517Z,2.57
2018-08-25T22:47:19.793Z,2.40
2018-08-25T22:49:48.065Z,4.77
2018-08-25T22:52:19.609Z,4.13
2018-08-25T22:54:47.913Z,3.43
2018-08-25T22:57:16.182Z,3.77
2018-08-25T22:59:44.493Z,5.37
2018-08-25T23:02:12.756Z,3.33
2018-08-25T23:04:41.038Z,3.07
2018-08-25T23:07:09.334Z,4.60
2018-08-25T23:09:37.604Z,3.33
2018-08-25T23:12:05.908Z,3.80
2018-08-25T23:14:34.193Z,4.20
2018-08-25T23:17:02.453Z,3.23
2018-08-25T23:19:30.714Z,3.17
2018-08-25T23:21:58.979Z,3.00
2018-08-25T23:24:27.250Z,2.93
2018-08-25T23:26:55.520Z,4.37
2018-08-25T23:29:23.792Z,2.80
2018-08-25T23:31:52.069Z,3.10
2018-08-25T23:34:20.335Z,3.10
2018-08-25T23:36:48.619Z,2.70
2018-08-25T23:39:16.902Z,6.13
2018-08-25T23:41:45.166Z,5.37
2018-08-25T23:44:13.505Z,4.20
2018-08-25T23:46:41.794Z,3.33
2018-08-25T23:49:10.053Z,4.80
2018-08-25T23:51:38.344Z,4.93
2018-08-25T23:54:06.821Z,4.63
2018-08-25T23:56:35.098Z,5.07
2018-08-25T23:59:03.398Z,4.53
